createdAt,value
2022-12-18T00:00:00.597Z,18.70
2022-12-18T00:05:04.138Z,18.70
2022-12-18T00:10:08.742Z,18.60
2022-12-18T00:15:13.665Z,18.70
2022-12-18T00:20:21.930Z,18.70
2022-12-18T00:25:25.560Z,18.70
2022-12-18T00:30:30.494Z,18.60
2022-12-18T00:35:34.308Z,18.90
2022-12-18T00:40:37.830Z,18.90
2022-12-18T00:45:42.708Z,18.90
2022-12-18T00:50:46.392Z,18.80
2022-12-18T00:55:49.945Z,18.90
2022-12-18T01:00:54.878Z,18.80
2022-12-18T01:05:58.438Z,18.90
2022-12-18T01:11:02.123Z,18.80
2022-12-18T01:16:07.434Z,18.90
2022-12-18T01:21:13.784Z,18.80
2022-12-18T01:26:18.375Z,18.90
2022-12-18T01:31:25.587Z,18.80
2022-12-18T01:36:31.685Z,18.90
2022-12-18T01:41:49.897Z,18.90
2022-12-18T01:46:54.799Z,18.90
2022-12-18T01:51:58.227Z,18.90
2022-12-18T01:57:02.164Z,19.00
2022-12-18T02:02:07.303Z,18.90
2022-12-18T02:07:18.721Z,19.00
2022-12-18T02:12:24.290Z,19.00
2022-12-18T02:17:34.793Z,19.00
2022-12-18T02:22:42.449Z,19.00
2022-12-18T02:27:48.425Z,19.00
2022-12-18T02:32:53.484Z,19.00
2022-12-18T02:37:57.790Z,19.10
2022-12-18T02:43:09.981Z,19.00
2022-12-18T02:48:13.429Z,19.00
2022-12-18T02:53:19.974Z,19.10
2022-12-18T02:58:30.097Z,19.10
2022-12-18T03:03:38.826Z,19.10
2022-12-18T03:08:45.746Z,19.00
2022-12-18T03:13:53.510Z,19.20
2022-12-18T03:18:59.056Z,19.10
2022-12-18T03:24:03.143Z,19.20
2022-12-18T03:29:12.214Z,19.10
2022-12-18T03:34:18.638Z,19.20
2022-12-18T03:39:22.241Z,19.20
2022-12-18T03:44:32.294Z,19.20
2022-12-18T03:49:39.035Z,19.20
2022-12-18T03:54:44.023Z,19.20
2022-12-18T03:59:50.690Z,19.20
2022-12-18T04:04:55.469Z,19.20
2022-12-18T04:10:00.673Z,19.30
2022-12-18T04:15:06.362Z,19.20
2022-12-18T04:20:10.880Z,19.30
2022-12-18T04:25:14.537Z,19.20
2022-12-18T04:30:19.657Z,19.30
2022-12-18T04:35:23.131Z,19.30
2022-12-18T04:40:26.632Z,19.30
2022-12-18T04:45:32.349Z,19.40
2022-12-18T04:50:35.794Z,19.30
2022-12-18T04:55:39.223Z,19.30
2022-12-18T05:00:44.441Z,19.40
2022-12-18T05:05:47.921Z,19.30
2022-12-18T05:10:51.486Z,19.40
2022-12-18T05:15:57.044Z,19.40
2022-12-18T05:21:00.608Z,19.30
2022-12-18T05:26:05.945Z,19.30
2022-12-18T05:31:10.904Z,19.40
2022-12-18T05:36:14.497Z,19.30
2022-12-18T05:41:18.104Z,19.40
2022-12-18T05:46:23.017Z,19.40
2022-12-18T05:51:26.549Z,19.40
2022-12-18T05:56:30.093Z,19.30
2022-12-18T06:01:35.034Z,19.40
2022-12-18T06:06:38.598Z,19.30
2022-12-18T06:11:42.536Z,19.40
2022-12-18T06:16:47.438Z,19.30
2022-12-18T06:21:51.917Z,19.30
2022-12-18T06:26:55.354Z,19.40
2022-12-18T06:32:00.288Z,19.40
2022-12-18T06:37:03.803Z,19.40
2022-12-18T06:42:07.581Z,19.30
2022-12-18T06:47:12.852Z,19.40
2022-12-18T06:52:16.341Z,19.40
2022-12-18T06:57:19.767Z,19.30
2022-12-18T07:02:24.759Z,19.40
2022-12-18T07:07:28.411Z,19.40
2022-12-18T07:12:31.961Z,19.30
2022-12-18T07:17:36.909Z,19.40
2022-12-18T07:22:40.407Z,19.30
2022-12-18T07:27:43.901Z,19.30
2022-12-18T07:32:48.821Z,19.40
2022-12-18T07:37:52.278Z,19.30
2022-12-18T07:42:55.710Z,19.30
2022-12-18T07:48:00.594Z,19.30
2022-12-18T07:53:04.769Z,19.30
2022-12-18T07:58:08.262Z,19.30
2022-12-18T08:03:13.212Z,19.30
2022-12-18T08:08:16.693Z,19.30
2022-12-18T08:13:20.188Z,19.30
2022-12-18T08:18:25.306Z,19.40
2022-12-18T08:23:29.032Z,19.40
2022-12-18T08:28:32.625Z,19.50
2022-12-18T08:33:39.054Z,19.50
2022-12-18T08:38:42.808Z,19.40
2022-12-18T08:44:03.621Z,19.50
2022-12-18T08:49:09.140Z,19.40
2022-12-18T08:54:13.882Z,19.50
2022-12-18T08:59:22.506Z,19.60
2022-12-18T09:04:27.393Z,19.50
2022-12-18T09:09:30.940Z,19.40
2022-12-18T09:14:34.402Z,19.40
2022-12-18T09:19:39.281Z,19.50
2022-12-18T09:24:42.828Z,19.70
2022-12-18T09:29:46.346Z,19.80
2022-12-18T09:34:51.583Z,19.90
2022-12-18T09:39:55.042Z,20.00
2022-12-18T09:44:58.749Z,20.10
2022-12-18T09:50:05.802Z,20.20
2022-12-18T09:55:15.602Z,19.90
2022-12-18T10:00:21.907Z,20.20
2022-12-18T10:05:33.999Z,20.40
2022-12-18T10:10:41.217Z,20.40
2022-12-18T10:15:55.257Z,20.60
2022-12-18T10:21:04.907Z,20.80
2022-12-18T10:26:13.248Z,20.70
2022-12-18T10:31:19.235Z,20.70
2022-12-18T10:36:25.934Z,20.80
2022-12-18T10:41:32.061Z,20.90
2022-12-18T10:46:38.362Z,20.90
2022-12-18T10:51:43.350Z,20.80
2022-12-18T10:56:47.519Z,20.80
2022-12-18T11:01:53.151Z,20.80
2022-12-18T11:07:00.481Z,20.80
2022-12-18T11:12:07.318Z,20.90
2022-12-18T11:17:25.886Z,20.80
2022-12-18T11:22:32.543Z,20.80
2022-12-18T11:27:36.036Z,20.80
2022-12-18T11:32:41.362Z,20.90
2022-12-18T11:37:49.174Z,21.00
2022-12-18T11:42:56.326Z,21.00
2022-12-18T11:48:03.348Z,21.00
2022-12-18T11:53:12.611Z,21.00
2022-12-18T11:58:26.422Z,21.10
2022-12-18T12:03:58.677Z,21.10
2022-12-18T12:09:11.164Z,21.20
2022-12-18T12:14:30.393Z,21.30
2022-12-18T12:19:41.298Z,21.30
2022-12-18T12:24:55.346Z,21.40
2022-12-18T12:30:06.054Z,21.70
2022-12-18T12:35:24.998Z,21.50
2022-12-18T12:41:03.649Z,21.70
2022-12-18T12:45:58.673Z,21.50
2022-12-18T12:51:03.506Z,21.60
2022-12-18T12:56:09.437Z,21.00
2022-12-18T13:01:23.611Z,22.90
2022-12-18T13:06:42.940Z,24.00
2022-12-18T13:12:06.911Z,24.80
2022-12-18T13:17:30.462Z,21.80
2022-12-18T13:22:37.608Z,23.10
2022-12-18T13:28:02.507Z,21.70
2022-12-18T13:33:56.272Z,22.40
2022-12-18T13:39:30.286Z,23.40
2022-12-18T13:44:41.532Z,24.10
2022-12-18T13:49:46.622Z,23.70
2022-12-18T13:54:54.358Z,25.90
2022-12-18T14:00:00.637Z,26.20
2022-12-18T14:05:04.118Z,24.60
2022-12-18T14:10:42.128Z,23.50
2022-12-18T14:15:43.209Z,22.50
2022-12-18T14:20:52.291Z,22.10
2022-12-18T14:25:58.613Z,21.60
2022-12-18T14:31:07.325Z,21.50
2022-12-18T14:36:18.979Z,21.30
2022-12-18T14:41:23.280Z,21.30
2022-12-18T14:46:37.514Z,21.40
2022-12-18T14:51:41.017Z,21.30
2022-12-18T14:56:47.443Z,21.30
2022-12-18T15:02:00.257Z,21.30
2022-12-18T15:07:12.327Z,20.90
2022-12-18T15:12:28.923Z,21.10
2022-12-18T15:17:33.818Z,21.10
2022-12-18T15:22:38.042Z,21.00
2022-12-18T15:27:47.154Z,21.00
2022-12-18T15:32:52.578Z,21.10
2022-12-18T15:37:56.061Z,21.00
2022-12-18T15:43:17.010Z,21.00
2022-12-18T15:48:23.917Z,20.90
2022-12-18T15:53:31.063Z,20.90
2022-12-18T15:58:35.141Z,20.80
2022-12-18T16:03:40.442Z,20.80
2022-12-18T16:08:44.375Z,20.70
2022-12-18T16:13:48.177Z,20.70
2022-12-18T16:18:53.048Z,20.70
2022-12-18T16:23:56.574Z,20.60
2022-12-18T16:29:00.197Z,20.60
2022-12-18T16:34:15.474Z,20.60
2022-12-18T16:39:19.057Z,20.50
2022-12-18T16:44:22.757Z,20.50
2022-12-18T16:49:27.814Z,20.40
2022-12-18T16:54:31.714Z,20.40
2022-12-18T16:59:35.340Z,20.50
2022-12-18T17:04:41.133Z,20.40
2022-12-18T17:09:44.697Z,20.30
2022-12-18T17:14:48.266Z,20.30
2022-12-18T17:19:54.169Z,20.20
2022-12-18T17:24:57.682Z,20.20
2022-12-18T17:30:01.183Z,20.30
2022-12-18T17:35:07.470Z,20.30
2022-12-18T17:40:12.047Z,20.20
2022-12-18T17:45:15.610Z,20.20
2022-12-18T17:50:20.490Z,20.20
2022-12-18T17:55:23.931Z,20.20
2022-12-18T18:00:27.414Z,20.20
2022-12-18T18:05:32.312Z,20.20
2022-12-18T18:10:38.444Z,20.20
2022-12-18T18:15:42.496Z,20.10
2022-12-18T18:20:47.430Z,20.00
2022-12-18T18:25:53.696Z,20.10
2022-12-18T18:30:57.214Z,20.00
2022-12-18T18:36:02.507Z,20.00
2022-12-18T18:41:06.805Z,20.10
2022-12-18T18:46:13.682Z,20.00
2022-12-18T18:51:21.184Z,20.00
2022-12-18T18:56:56.420Z,19.90
2022-12-18T19:01:52.913Z,19.90
2022-12-18T19:06:57.895Z,20.00
2022-12-18T19:12:18.772Z,20.00
2022-12-18T19:17:27.924Z,20.00
2022-12-18T19:22:34.714Z,19.90
2022-12-18T19:27:39.117Z,19.90
2022-12-18T19:32:42.629Z,19.90
2022-12-18T19:37:47.506Z,19.90
2022-12-18T19:42:51.279Z,19.90
2022-12-18T19:47:56.668Z,19.90
2022-12-18T19:53:04.693Z,19.80
2022-12-18T19:58:10.565Z,19.80
2022-12-18T20:03:23.463Z,19.80
2022-12-18T20:08:33.645Z,19.80
2022-12-18T20:13:37.684Z,19.90
2022-12-18T20:18:41.266Z,19.80
2022-12-18T20:23:47.320Z,19.80
2022-12-18T20:28:50.837Z,19.80
2022-12-18T20:33:54.577Z,19.70
2022-12-18T20:39:03.873Z,19.80
2022-12-18T20:44:21.568Z,19.70
2022-12-18T20:49:28.230Z,19.80
2022-12-18T20:54:33.125Z,19.70
2022-12-18T20:59:36.553Z,19.70
2022-12-18T21:04:40.112Z,19.70
2022-12-18T21:09:44.994Z,19.70
2022-12-18T21:14:48.525Z,19.70
2022-12-18T21:19:54.163Z,19.70
2022-12-18T21:24:59.850Z,19.70
2022-12-18T21:30:03.428Z,19.70
2022-12-18T21:35:07.662Z,19.70
2022-12-18T21:40:13.595Z,19.60
2022-12-18T21:45:17.283Z,19.70
2022-12-18T21:50:20.789Z,19.60
2022-12-18T21:55:25.907Z,19.60
2022-12-18T22:00:29.344Z,19.60
2022-12-18T22:05:32.826Z,19.60
2022-12-18T22:10:38.437Z,19.60
2022-12-18T22:15:42.091Z,19.60
2022-12-18T22:20:45.577Z,19.60
2022-12-18T22:25:50.490Z,19.60
2022-12-18T22:30:55.133Z,19.50
2022-12-18T22:36:07.041Z,19.60
2022-12-18T22:41:11.943Z,19.60
2022-12-18T22:46:17.287Z,19.50
2022-12-18T22:51:21.466Z,19.60
2022-12-18T22:56:26.394Z,19.60
2022-12-18T23:01:31.233Z,19.60
2022-12-18T23:06:36.175Z,19.60
2022-12-18T23:11:41.097Z,19.50
2022-12-18T23:16:44.733Z,19.60
2022-12-18T23:21:50.004Z,19.60
2022-12-18T23:26:54.878Z,19.50
2022-12-18T23:31:58.406Z,19.50
2022-12-18T23:37:04.003Z,19.50
2022-12-18T23:42:09.041Z,19.50
2022-12-18T23:47:13.877Z,19.40
2022-12-18T23:52:17.247Z,19.50
2022-12-18T23:57:22.122Z,19.50
